createdAt,value
2018-09-26T00:02:32.789Z,6.1
2018-09-26T00:03:31.604Z,6.1
2018-09-26T00:04:30.809Z,6.1
2018-09-26T00:05:30.123Z,6.1
2018-09-26T00:06:29.044Z,6.1
2018-09-26T00:06:59.572Z,6.1
2018-09-26T00:07:29.810Z,6
2018-09-26T00:08:27.221Z,6
2018-09-26T00:09:26.447Z,6
2018-09-26T00:10:25.255Z,6
2018-09-26T00:12:23.453Z,6
2018-09-26T00:13:22.344Z,6
2018-09-26T00:14:21.556Z,6
2018-09-26T00:15:20.969Z,6
2018-09-26T00:16:20.086Z,6
2018-09-26T00:17:18.798Z,6
2018-09-26T00:18:18.012Z,6
2018-09-26T00:19:17.435Z,6
2018-09-26T00:20:16.358Z,6
2018-09-26T00:21:15.291Z,6
2018-09-26T00:22:14.715Z,6
2018-09-26T00:23:13.639Z,6
2018-09-26T00:24:12.463Z,6
2018-09-26T00:25:11.776Z,5.9
2018-09-26T00:26:10.702Z,5.9
2018-09-26T00:28:09.013Z,5.9
2018-09-26T00:29:07.937Z,5.9
2018-09-26T00:30:07.262Z,5.9
2018-09-26T00:31:05.962Z,5.9
2018-09-26T00:32:05.301Z,5.9
2018-09-26T00:33:04.512Z,5.9
2018-09-26T00:34:03.224Z,5.9
2018-09-26T00:35:02.441Z,5.9
2018-09-26T00:36:02.282Z,5.9
2018-09-26T00:36:31.869Z,5.9
2018-09-26T00:37:02.402Z,5.8
2018-09-26T00:37:32.930Z,5.8
2018-09-26T00:38:03.498Z,5.8
2018-09-26T00:38:34.028Z,5.8
2018-09-26T00:39:58.120Z,5.8
2018-09-26T00:40:56.965Z,5.8
2018-09-26T00:41:56.067Z,5.8
2018-09-26T00:42:55.385Z,5.8
2018-09-26T00:43:54.207Z,5.8
2018-09-26T00:44:53.522Z,5.8
2018-09-26T00:45:52.625Z,5.8
2018-09-26T00:46:23.268Z,5.8
2018-09-26T00:46:53.500Z,5.8
2018-09-26T00:47:24.025Z,5.8
2018-09-26T00:47:54.660Z,5.8
2018-09-26T00:48:25.186Z,5.8
2018-09-26T00:49:48.954Z,5.7
2018-09-26T00:50:47.765Z,5.7
2018-09-26T00:51:47.093Z,5.7
2018-09-26T00:52:46.032Z,5.7
2018-09-26T00:54:44.240Z,5.7
2018-09-26T00:55:43.668Z,5.6
2018-09-26T00:56:42.577Z,5.6
2018-09-26T00:57:41.683Z,5.6
2018-09-26T00:58:40.390Z,5.6
2018-09-26T00:59:11.137Z,5.6
2018-09-26T00:59:41.296Z,5.6
2018-09-26T01:00:12.025Z,5.6
2018-09-26T01:02:36.786Z,5.5
2018-09-26T01:03:36.010Z,5.5
2018-09-26T01:04:35.431Z,5.5
2018-09-26T01:05:34.037Z,5.5
2018-09-26T01:07:32.412Z,5.5
2018-09-26T01:08:31.622Z,5.5
2018-09-26T01:09:30.331Z,5.5
2018-09-26T01:13:26.799Z,5.5
2018-09-26T01:14:26.232Z,5.5
2018-09-26T01:16:24.230Z,5.5
2018-09-26T01:16:54.657Z,5.5
2018-09-26T01:17:25.279Z,5.5
2018-09-26T01:17:55.812Z,5.5
2018-09-26T01:19:21.299Z,5.5
2018-09-26T01:20:20.726Z,5.5
2018-09-26T01:24:16.688Z,5.5
2018-09-26T01:25:16.109Z,5.5
2018-09-26T01:26:14.715Z,5.5
2018-09-26T01:26:45.461Z,5.5
2018-09-26T01:28:12.959Z,5.5
2018-09-26T01:28:43.694Z,5.5
2018-09-26T01:29:13.921Z,5.5
2018-09-26T01:29:44.057Z,5.5
2018-09-26T01:30:14.366Z,5.5
2018-09-26T01:31:10.163Z,5.5
2018-09-26T01:35:06.634Z,5.5
2018-09-26T01:37:04.838Z,5.4
2018-09-26T01:39:03.043Z,5.4
2018-09-26T01:39:33.676Z,5.4
2018-09-26T01:43:58.231Z,5.4
2018-09-26T01:46:55.612Z,5.4
2018-09-26T01:50:51.875Z,5.4
2018-09-26T01:51:51.092Z,5.4
2018-09-26T01:53:49.493Z,5.4
2018-09-26T01:54:47.941Z,5.4
2018-09-26T01:55:47.051Z,5.4
2018-09-26T01:57:45.650Z,5.4
2018-09-26T01:58:16.174Z,5.4
2018-09-26T01:59:43.580Z,5.4
2018-09-26T02:00:42.792Z,5.4
2018-09-26T02:01:41.504Z,5.4
2018-09-26T02:02:40.774Z,5.4
2018-09-26T02:03:39.702Z,5.4
2018-09-26T02:05:37.903Z,5.4
2018-09-26T02:06:37.113Z,5.4
2018-09-26T02:08:35.315Z,5.5
2018-09-26T02:09:05.437Z,5.5
2018-09-26T02:09:36.069Z,5.5
2018-09-26T02:11:32.654Z,5.5
2018-09-26T02:13:30.857Z,5.5
2018-09-26T02:14:29.583Z,5.5
2018-09-26T02:15:28.697Z,5.5
2018-09-26T02:16:28.121Z,5.5
2018-09-26T02:17:26.945Z,5.5
2018-09-26T02:18:25.861Z,5.4
2018-09-26T02:20:24.068Z,5.5
2018-09-26T02:21:23.496Z,5.4
2018-09-26T02:22:22.312Z,5.4
2018-09-26T02:23:21.518Z,5.5
2018-09-26T02:23:52.272Z,5.5
2018-09-26T02:24:22.363Z,5.5
2018-09-26T02:25:19.786Z,5.5
2018-09-26T02:27:17.879Z,5.5
2018-09-26T02:28:16.717Z,5.5
2018-09-26T02:29:16.030Z,5.5
2018-09-26T02:30:14.891Z,5.5
2018-09-26T02:31:14.111Z,5.5
2018-09-26T02:33:12.108Z,5.5
2018-09-26T02:33:42.744Z,5.5
2018-09-26T02:35:10.349Z,5.5
2018-09-26T02:37:08.344Z,5.5
2018-09-26T02:38:07.446Z,5.5
2018-09-26T02:39:06.693Z,5.5
2018-09-26T02:40:05.409Z,5.5
2018-09-26T02:41:05.014Z,5.5
2018-09-26T02:42:04.128Z,5.5
2018-09-26T02:43:02.729Z,5.5
2018-09-26T02:45:00.937Z,5.5
2018-09-26T02:46:00.275Z,5.5
2018-09-26T02:46:59.031Z,5.5
2018-09-26T02:47:58.247Z,5.5
2018-09-26T02:49:56.549Z,5.5
2018-09-26T02:51:54.650Z,5.4
2018-09-26T02:52:24.890Z,5.4
2018-09-26T02:53:52.997Z,5.4
2018-09-26T02:54:54.808Z,5.4
2018-09-26T02:58:48.297Z,5.4
2018-09-26T02:59:47.015Z,5.4
2018-09-26T03:02:44.633Z,5.3
2018-09-26T03:03:15.076Z,5.3
2018-09-26T03:03:45.743Z,5.3
2018-09-26T03:04:16.327Z,5.3
2018-09-26T03:04:46.971Z,5.3
2018-09-26T03:05:17.209Z,5.3
2018-09-26T03:06:40.712Z,5.3
2018-09-26T03:07:39.939Z,5.2
2018-09-26T03:08:38.760Z,5.2
2018-09-26T03:09:38.214Z,5.2
2018-09-26T03:10:37.054Z,5.2
2018-09-26T03:11:36.287Z,5.2
2018-09-26T03:12:35.158Z,5.2
2018-09-26T03:13:05.773Z,5.2
2018-09-26T03:13:36.442Z,5.2
2018-09-26T03:14:06.881Z,5.2
2018-09-26T03:14:37.308Z,5.2
2018-09-26T03:15:07.453Z,5.2
2018-09-26T03:15:38.107Z,5.1
2018-09-26T03:16:08.753Z,5.1
2018-09-26T03:18:29.405Z,5.1
2018-09-26T03:19:28.737Z,5.1
2018-09-26T03:21:27.068Z,5.1
2018-09-26T03:23:24.856Z,5.1
2018-09-26T03:24:23.984Z,5.1
2018-09-26T03:28:20.358Z,5.1
2018-09-26T03:29:19.294Z,5.1
2018-09-26T03:32:16.820Z,5.1
2018-09-26T03:32:47.375Z,5.1
2018-09-26T03:37:12.162Z,5.1
2018-09-26T03:46:03.678Z,5.1
2018-09-26T03:46:33.931Z,5.1
2018-09-26T03:47:04.592Z,5.2
2018-09-26T03:51:57.947Z,5.2
2018-09-26T03:54:55.045Z,5.1
2018-09-26T03:55:25.292Z,5.1
2018-09-26T03:56:53.093Z,5.1
2018-09-26T04:00:49.869Z,5
2018-09-26T04:01:48.692Z,5
2018-09-26T04:02:47.807Z,5
2018-09-26T04:09:41.342Z,5
2018-09-26T04:11:39.591Z,4.9
2018-09-26T04:29:22.393Z,4.9
2018-09-26T04:35:17.042Z,5
2018-09-26T04:36:15.765Z,5
2018-09-26T04:39:13.393Z,5
2018-09-26T04:39:43.651Z,5
2018-09-26T04:45:07.380Z,5
2018-09-26T04:46:06.710Z,5
2018-09-26T04:47:05.930Z,5
2018-09-26T04:48:04.863Z,4.9
2018-09-26T04:51:02.258Z,4.9
2018-09-26T04:51:32.681Z,4.9
2018-09-26T04:52:03.227Z,4.9
2018-09-26T04:53:00.082Z,4.9
2018-09-26T04:53:59.305Z,4.9
2018-09-26T04:54:58.242Z,4.9
2018-09-26T04:55:57.355Z,4.9
2018-09-26T04:56:56.582Z,4.8
2018-09-26T04:58:54.399Z,4.8
2018-09-26T05:00:52.724Z,4.8
2018-09-26T05:01:23.365Z,4.8
2018-09-26T05:02:50.987Z,4.8
2018-09-26T05:03:49.819Z,4.8
2018-09-26T05:04:49.043Z,4.8
2018-09-26T05:05:47.771Z,4.8
2018-09-26T05:06:47.000Z,4.8
2018-09-26T05:07:46.229Z,4.8
2018-09-26T05:08:45.057Z,4.8
2018-09-26T05:09:44.496Z,4.8
2018-09-26T05:11:42.610Z,4.8
2018-09-26T05:13:40.427Z,4.8
2018-09-26T05:14:39.924Z,4.8
2018-09-26T05:15:38.619Z,4.8
2018-09-26T05:16:37.558Z,4.8
2018-09-26T05:18:35.564Z,4.8
2018-09-26T05:19:06.215Z,4.8
2018-09-26T05:19:36.870Z,4.8
2018-09-26T05:20:07.120Z,4.8
2018-09-26T05:21:33.240Z,4.8
2018-09-26T05:22:31.848Z,4.8
2018-09-26T05:24:30.073Z,4.9
2018-09-26T05:26:28.294Z,4.9
2018-09-26T05:27:27.441Z,4.9
2018-09-26T05:28:26.268Z,4.9
2018-09-26T05:28:56.913Z,4.9
2018-09-26T05:29:27.459Z,4.9
2018-09-26T05:29:58.103Z,4.9
2018-09-26T05:30:28.803Z,4.9
2018-09-26T05:30:59.113Z,4.9
2018-09-26T05:31:29.357Z,4.9
2018-09-26T05:32:00.010Z,4.9
2018-09-26T05:32:30.650Z,4.9
2018-09-26T05:33:01.078Z,4.9
2018-09-26T05:34:20.835Z,4.9
2018-09-26T05:35:20.067Z,4.8
2018-09-26T05:36:19.004Z,4.9
2018-09-26T05:37:18.335Z,4.9
2018-09-26T05:38:17.054Z,4.9
2018-09-26T05:40:15.172Z,4.9
2018-09-26T05:40:45.710Z,4.9
2018-09-26T05:41:16.140Z,4.9
2018-09-26T05:41:47.056Z,4.9
2018-09-26T05:42:17.257Z,4.9
2018-09-26T05:42:47.685Z,4.9
2018-09-26T05:44:11.598Z,4.9
2018-09-26T05:45:10.436Z,4.9
2018-09-26T05:46:09.879Z,4.9
2018-09-26T05:48:07.707Z,4.9
2018-09-26T05:49:06.707Z,4.9
2018-09-26T05:50:06.313Z,4.9
2018-09-26T05:51:05.241Z,4.9
2018-09-26T05:52:04.190Z,4.9
2018-09-26T05:53:03.021Z,4.9
2018-09-26T05:54:01.957Z,4.9
2018-09-26T05:55:01.092Z,4.9
2018-09-26T05:56:00.434Z,5
2018-09-26T05:56:59.149Z,5
2018-09-26T05:57:58.486Z,5
2018-09-26T05:58:57.311Z,5
2018-09-26T06:00:55.641Z,5.1
2018-09-26T06:01:54.473Z,5.1
2018-09-26T06:02:53.697Z,5.1
2018-09-26T06:03:52.605Z,5.1
2018-09-26T06:04:52.048Z,5.1
2018-09-26T06:05:50.874Z,5.1
2018-09-26T06:06:50.092Z,5.2
2018-09-26T06:07:49.215Z,5.2
2018-09-26T06:13:43.465Z,5.3
2018-09-26T06:14:42.299Z,5.4
2018-09-26T06:15:41.515Z,5.4
2018-09-26T06:18:38.616Z,5.6
2018-09-26T06:20:36.626Z,5.6
2018-09-26T06:21:07.159Z,5.6
2018-09-26T06:22:34.965Z,5.6
2018-09-26T06:24:33.070Z,5.7
2018-09-26T06:25:32.418Z,5.8
2018-09-26T06:26:31.142Z,5.8
2018-09-26T06:27:30.382Z,5.8
2018-09-26T06:29:28.599Z,5.9
2018-09-26T06:30:27.526Z,5.9
2018-09-26T06:32:25.735Z,6
2018-09-26T06:33:25.058Z,6.1
2018-09-26T06:34:23.883Z,6.1
2018-09-26T06:35:23.128Z,6.2
2018-09-26T06:36:21.954Z,6.2
2018-09-26T06:36:52.193Z,6.2
2018-09-26T06:39:18.990Z,6.3
2018-09-26T06:41:17.205Z,6.4
2018-09-26T06:43:15.818Z,6.4
2018-09-26T06:44:14.745Z,6.5
2018-09-26T06:45:13.972Z,6.5
2018-09-26T06:46:12.799Z,6.6
2018-09-26T06:47:11.909Z,6.6
2018-09-26T06:47:42.441Z,6.6
2018-09-26T06:48:12.760Z,6.6
2018-09-26T06:49:09.969Z,6.7
2018-09-26T06:50:08.982Z,6.7
2018-09-26T06:51:08.419Z,6.7
2018-09-26T06:52:07.135Z,6.7
2018-09-26T06:53:06.463Z,6.8
2018-09-26T06:56:03.456Z,6.9
2018-09-26T06:57:02.781Z,6.9
2018-09-26T06:58:02.019Z,7
2018-09-26T06:59:00.854Z,7
2018-09-26T07:00:00.079Z,7.1
2018-09-26T07:00:58.797Z,7.1
2018-09-26T07:01:58.145Z,7.2
2018-09-26T07:02:57.085Z,7.2
2018-09-26T07:03:56.202Z,7.2
2018-09-26T07:05:54.216Z,7.4
2018-09-26T07:06:24.960Z,7.4
2018-09-26T07:06:55.498Z,7.4
2018-09-26T07:07:26.248Z,7.4
2018-09-26T07:08:51.753Z,7.4
2018-09-26T07:09:50.871Z,7.5
2018-09-26T07:10:49.808Z,7.5
2018-09-26T07:11:49.037Z,7.5
2018-09-26T07:12:48.265Z,7.5
2018-09-26T07:13:46.873Z,7.5
2018-09-26T07:14:46.301Z,7.6
2018-09-26T07:15:45.018Z,7.6
2018-09-26T07:16:15.563Z,7.6
2018-09-26T07:16:46.303Z,7.6
2018-09-26T07:17:16.838Z,7.6
2018-09-26T07:17:47.099Z,7.6
2018-09-26T07:18:17.523Z,7.6
2018-09-26T07:19:41.510Z,7.7
2018-09-26T07:20:40.868Z,7.7
2018-09-26T07:21:39.687Z,7.8
2018-09-26T07:22:38.695Z,7.8
2018-09-26T07:23:38.022Z,7.8
2018-09-26T07:24:37.344Z,7.8
2018-09-26T07:25:36.078Z,7.8
2018-09-26T07:26:35.302Z,7.8
2018-09-26T07:27:34.635Z,7.8
2018-09-26T07:28:05.284Z,7.8
2018-09-26T07:28:35.920Z,7.8
2018-09-26T07:29:06.573Z,7.8
2018-09-26T07:30:31.567Z,7.8
2018-09-26T07:31:30.974Z,7.8
2018-09-26T07:34:27.941Z,7.8
2018-09-26T07:35:27.373Z,7.8
2018-09-26T07:36:26.087Z,7.8
2018-09-26T07:37:25.314Z,7.8
2018-09-26T07:38:24.817Z,7.8
2018-09-26T07:39:23.366Z,7.9
2018-09-26T07:40:22.805Z,7.9
2018-09-26T07:41:21.734Z,7.9
2018-09-26T07:42:20.853Z,7.9
2018-09-26T07:43:20.076Z,7.9
2018-09-26T07:44:19.196Z,7.9
2018-09-26T07:46:17.303Z,8
2018-09-26T07:46:47.837Z,8
2018-09-26T07:47:18.375Z,8.1
2018-09-26T07:47:48.918Z,8.1
2018-09-26T07:49:14.426Z,8.1
2018-09-26T07:50:13.867Z,8.2
2018-09-26T07:51:12.806Z,8.2
2018-09-26T07:52:12.233Z,8.2
2018-09-26T07:53:11.405Z,8.3
2018-09-26T07:55:09.473Z,8.4
2018-09-26T07:56:08.611Z,8.4
2018-09-26T07:56:39.048Z,8.4
2018-09-26T07:57:09.296Z,8.4
2018-09-26T07:57:39.848Z,8.4
2018-09-26T08:00:05.083Z,8.6
2018-09-26T08:01:03.929Z,8.7
2018-09-26T08:05:00.326Z,8.9
2018-09-26T08:06:58.427Z,9
2018-09-26T08:07:57.648Z,9
2018-09-26T08:08:28.245Z,9
2018-09-26T08:47:22.895Z,10.9
2018-09-26T09:03:09.000Z,11.5
2018-09-26T09:03:39.242Z,11.5
2018-09-26T09:37:39.756Z,12.1
2018-09-26T09:38:39.197Z,12.1
2018-09-26T09:41:36.681Z,12.3
2018-09-26T09:44:34.265Z,12.3
2018-09-26T09:45:04.735Z,12.3
2018-09-26T09:45:35.491Z,12.3
2018-09-26T09:46:06.032Z,12.3
2018-09-26T09:46:36.679Z,12.3
2018-09-26T09:47:06.716Z,12.3
2018-09-26T09:48:31.122Z,12.3
2018-09-26T09:49:30.059Z,12.4
2018-09-26T09:50:29.198Z,12.4
2018-09-26T09:51:28.394Z,12.4
2018-09-26T09:52:27.337Z,12.4
2018-09-26T09:53:27.070Z,12.4
2018-09-26T09:54:25.796Z,12.5
2018-09-26T09:55:25.120Z,12.5
2018-09-26T09:57:23.831Z,12.5
2018-09-26T09:57:54.475Z,12.5
2018-09-26T09:58:25.013Z,12.5
2018-09-26T09:58:55.256Z,12.5
2018-09-26T10:02:19.546Z,12.8
2018-09-26T10:18:06.395Z,13.4
2018-09-26T10:19:05.519Z,13.5
2018-09-26T10:20:05.057Z,13.6
2018-09-26T10:21:04.279Z,13.7
2018-09-26T10:22:03.620Z,13.8
2018-09-26T10:23:02.439Z,13.9
2018-09-26T10:26:00.496Z,14
2018-09-26T10:26:30.921Z,14
2018-09-26T10:31:55.474Z,14
2018-09-26T10:33:53.725Z,13.9
2018-09-26T10:40:48.462Z,13.8
2018-09-26T10:45:44.068Z,13.9
2018-09-26T10:46:14.716Z,13.9
2018-09-26T10:46:45.854Z,13.9
2018-09-26T10:47:15.869Z,13.9
2018-09-26T10:48:41.998Z,14
2018-09-26T10:49:41.442Z,13.9
2018-09-26T10:50:40.777Z,13.9
2018-09-26T10:52:38.987Z,13.9
2018-09-26T10:53:38.206Z,13.9
2018-09-26T10:54:37.428Z,13.9
2018-09-26T10:57:35.029Z,13.8
2018-09-26T10:58:05.066Z,13.8
2018-09-26T10:59:33.692Z,13.8
2018-09-26T11:00:33.020Z,13.8
2018-09-26T11:01:31.857Z,13.8
2018-09-26T11:02:31.095Z,13.8
2018-09-26T11:03:30.325Z,13.8
2018-09-26T11:04:29.657Z,13.8
2018-09-26T11:05:28.988Z,13.8
2018-09-26T11:06:28.213Z,13.7
2018-09-26T11:07:27.553Z,13.8
2018-09-26T11:07:57.801Z,13.8
2018-09-26T11:08:28.450Z,13.8
2018-09-26T11:12:23.331Z,14
2018-09-26T11:12:54.079Z,14
2018-09-26T11:13:24.318Z,14
2018-09-26T11:13:54.991Z,14
2018-09-26T11:17:19.880Z,14.1
2018-09-26T11:19:18.000Z,14.2
2018-09-26T11:20:17.531Z,14.2
2018-09-26T11:22:16.335Z,14.3
2018-09-26T11:23:15.142Z,14.4
2018-09-26T11:23:45.804Z,14.4
2018-09-26T11:26:13.029Z,14.5
2018-09-26T11:27:11.731Z,14.5
2018-09-26T11:28:11.425Z,14.5
2018-09-26T11:29:10.533Z,14.5
2018-09-26T11:30:09.471Z,14.6
2018-09-26T11:31:08.708Z,14.6
2018-09-26T11:32:08.101Z,14.6
2018-09-26T11:33:07.465Z,14.6
2018-09-26T11:34:06.848Z,14.6
2018-09-26T11:36:05.035Z,14.7
2018-09-26T11:37:04.364Z,14.7
2018-09-26T11:46:56.576Z,14.7
2018-09-26T11:47:56.012Z,14.7
2018-09-26T11:49:54.284Z,14.7
2018-09-26T11:50:53.723Z,14.7
2018-09-26T11:52:51.933Z,14.8
2018-09-26T11:53:22.183Z,14.8
2018-09-26T11:53:52.830Z,14.8
2018-09-26T11:54:23.368Z,14.8
2018-09-26T11:54:53.903Z,14.9
2018-09-26T11:55:24.446Z,14.9
2018-09-26T11:56:48.936Z,14.9
2018-09-26T11:57:48.163Z,15
2018-09-26T11:58:47.486Z,15
2018-09-26T11:59:46.825Z,15.1
2018-09-26T12:01:45.189Z,15.3
2018-09-26T12:03:43.804Z,15.2
2018-09-26T12:04:14.500Z,15.2
2018-09-26T12:06:41.736Z,15.2
2018-09-26T12:07:12.291Z,15.2
2018-09-26T12:07:42.150Z,15.2
2018-09-26T12:08:39.971Z,15.1
2018-09-26T12:09:39.417Z,15.2
2018-09-26T12:11:37.867Z,15.3
2018-09-26T12:12:36.984Z,15.3
2018-09-26T12:13:36.333Z,15.3
2018-09-26T12:15:35.049Z,15.4
2018-09-26T12:16:34.280Z,15.4
2018-09-26T12:17:04.418Z,15.4
2018-09-26T12:18:32.424Z,15.4
2018-09-26T12:20:31.149Z,15.5
2018-09-26T12:26:26.417Z,15.5
2018-09-26T12:27:25.752Z,15.5
2018-09-26T12:28:25.298Z,15.5
2018-09-26T12:29:24.292Z,15.6
2018-09-26T12:30:24.338Z,15.7
2018-09-26T12:31:23.082Z,15.7
2018-09-26T12:32:22.526Z,15.7
2018-09-26T12:33:21.366Z,15.7
2018-09-26T12:34:20.742Z,15.7
2018-09-26T12:34:51.673Z,15.7
2018-09-26T12:36:19.239Z,15.7
2018-09-26T12:36:49.676Z,15.7
2018-09-26T12:37:20.335Z,15.8
2018-09-26T12:37:51.092Z,15.8
2018-09-26T12:39:17.113Z,15.9
2018-09-26T12:41:15.323Z,15.9
2018-09-26T12:44:13.421Z,15.7
2018-09-26T12:46:12.414Z,15.7
2018-09-26T12:46:42.904Z,15.7
2018-09-26T12:47:13.363Z,15.7
2018-09-26T12:47:43.333Z,15.7
2018-09-26T12:50:09.124Z,16
2018-09-26T12:51:08.341Z,16.1
2018-09-26T12:52:07.732Z,16
2018-09-26T12:53:07.041Z,16.1
2018-09-26T13:00:02.086Z,16.3
2018-09-26T13:02:59.597Z,16.2
2018-09-26T13:03:58.716Z,16.3
2018-09-26T13:04:58.163Z,16.3
2018-09-26T13:05:57.062Z,16.3
2018-09-26T13:06:56.954Z,16.4
2018-09-26T13:08:55.277Z,16.5
2018-09-26T13:12:52.262Z,16.4
2018-09-26T13:13:51.601Z,16.4
2018-09-26T13:16:49.715Z,16.3
2018-09-26T13:17:48.717Z,16.3
2018-09-26T13:18:19.437Z,16.3
2018-09-26T13:19:47.386Z,16.4
2018-09-26T13:20:46.825Z,16.5
2018-09-26T13:21:46.263Z,16.6
2018-09-26T13:23:44.438Z,16.7
2018-09-26T13:24:43.679Z,16.8
2018-09-26T13:25:43.170Z,16.9
2018-09-26T13:26:42.467Z,16.9
2018-09-26T13:27:41.797Z,16.8
2018-09-26T13:28:41.018Z,16.7
2018-09-26T13:29:40.348Z,16.7
2018-09-26T13:30:39.569Z,16.8
2018-09-26T13:31:39.014Z,16.8
2018-09-26T13:32:38.235Z,16.9
2018-09-26T13:33:37.668Z,17
2018-09-26T13:34:08.014Z,17
2018-09-26T13:34:38.260Z,17
2018-09-26T13:35:35.869Z,16.9
2018-09-26T13:36:35.501Z,17
2018-09-26T13:37:34.949Z,16.9
2018-09-26T13:38:33.803Z,17
2018-09-26T13:39:33.191Z,17
2018-09-26T13:40:32.515Z,17.1
2018-09-26T13:41:31.846Z,17.1
2018-09-26T13:42:31.060Z,17
2018-09-26T13:43:30.398Z,17
2018-09-26T13:44:00.820Z,17
2018-09-26T13:44:31.143Z,16.9
2018-09-26T13:45:01.782Z,16.9
2018-09-26T13:46:28.291Z,16.7
2018-09-26T13:47:27.748Z,16.6
2018-09-26T13:48:26.974Z,16.8
2018-09-26T13:49:26.200Z,16.8
2018-09-26T13:50:26.007Z,16.8
2018-09-26T13:51:25.009Z,16.8
2018-09-26T13:52:24.665Z,16.8
2018-09-26T13:53:23.488Z,16.8
2018-09-26T13:54:23.125Z,16.7
2018-09-26T13:55:22.205Z,16.7
2018-09-26T13:55:52.744Z,16.7
2018-09-26T13:56:23.543Z,16.6
2018-09-26T13:56:53.966Z,16.6
2018-09-26T13:57:24.216Z,16.7
2018-09-26T13:58:20.140Z,16.8
2018-09-26T13:59:19.139Z,16.8
2018-09-26T14:00:18.930Z,16.8
2018-09-26T14:01:17.886Z,16.8
2018-09-26T14:02:17.317Z,16.7
2018-09-26T14:03:16.591Z,16.8
2018-09-26T14:04:16.093Z,16.8
2018-09-26T14:05:15.290Z,16.8
2018-09-26T14:06:14.510Z,16.8
2018-09-26T14:07:13.940Z,16.8
2018-09-26T14:08:13.267Z,16.8
2018-09-26T14:09:12.594Z,16.8
2018-09-26T14:10:11.819Z,16.7
2018-09-26T14:11:11.045Z,16.7
2018-09-26T14:12:10.274Z,16.7
2018-09-26T14:13:09.515Z,16.7
2018-09-26T14:14:08.964Z,16.7
2018-09-26T14:14:39.354Z,16.7
2018-09-26T14:15:09.895Z,16.8
2018-09-26T14:15:40.550Z,16.8
2018-09-26T14:16:11.083Z,16.7
2018-09-26T14:16:41.344Z,16.7
2018-09-26T14:18:06.034Z,16.8
2018-09-26T14:19:05.211Z,16.8
2018-09-26T14:20:04.737Z,16.9
2018-09-26T14:21:04.021Z,17
2018-09-26T14:22:03.262Z,17.1
2018-09-26T14:23:02.640Z,17.2
2018-09-26T14:24:01.807Z,17.2
2018-09-26T14:24:32.340Z,17.2
2018-09-26T14:25:02.875Z,17.2
2018-09-26T14:25:33.509Z,17.2
2018-09-26T14:26:04.213Z,17.3
2018-09-26T14:26:34.516Z,17.3
2018-09-26T14:27:05.047Z,17.3
2018-09-26T14:27:35.479Z,17.3
2018-09-26T14:28:05.959Z,17.2
2018-09-26T14:28:36.576Z,17.2
2018-09-26T14:29:58.055Z,17.1
2018-09-26T14:30:57.055Z,17.2
2018-09-26T14:31:56.564Z,17.2
2018-09-26T14:32:55.884Z,17.1
2018-09-26T14:33:55.492Z,17.1
2018-09-26T14:34:54.592Z,17
2018-09-26T14:35:53.936Z,17.2
2018-09-26T14:36:53.273Z,17.3
2018-09-26T14:37:52.397Z,17.5
2018-09-26T14:38:22.938Z,17.5
2018-09-26T14:38:52.962Z,17.6
2018-09-26T14:39:23.557Z,17.6
2018-09-26T14:40:50.123Z,17.5
2018-09-26T14:41:49.249Z,17.4
2018-09-26T14:42:49.070Z,17.5
2018-09-26T14:43:48.013Z,17.6
2018-09-26T14:44:47.349Z,17.7
2018-09-26T14:45:46.856Z,17.5
2018-09-26T14:46:45.990Z,17.5
2018-09-26T14:47:45.429Z,17.5
2018-09-26T14:48:44.869Z,17.6
2018-09-26T14:49:44.249Z,17.6
2018-09-26T14:50:43.579Z,17.6
2018-09-26T14:51:42.529Z,17.6
2018-09-26T14:52:41.931Z,18
2018-09-26T14:53:41.534Z,18.1
2018-09-26T14:54:40.865Z,18.1
2018-09-26T14:55:40.199Z,18.2
2018-09-26T14:56:39.425Z,18.1
2018-09-26T14:57:10.322Z,18.1
2018-09-26T14:57:40.653Z,18.1
2018-09-26T14:58:11.076Z,18.1
2018-09-26T14:58:41.504Z,18.1
2018-09-26T14:59:11.947Z,18.1
2018-09-26T15:00:36.838Z,18.5
2018-09-26T15:01:35.776Z,18.5
2018-09-26T15:02:35.106Z,18.5
2018-09-26T15:03:34.545Z,18.7
2018-09-26T15:04:34.398Z,18.4
2018-09-26T15:05:33.194Z,18.1
2018-09-26T15:06:32.528Z,18
2018-09-26T15:07:31.755Z,17.9
2018-09-26T15:08:02.401Z,17.9
2018-09-26T15:08:33.227Z,17.6
2018-09-26T15:09:03.383Z,17.6
2018-09-26T15:09:33.991Z,17.6
2018-09-26T15:10:04.843Z,17.6
2018-09-26T15:11:29.413Z,17.6
2018-09-26T15:13:27.629Z,17.6
2018-09-26T15:16:25.842Z,17.3
2018-09-26T15:19:24.006Z,17
2018-09-26T15:22:21.820Z,16.9
2018-09-26T15:50:02.341Z,16.2
2018-09-26T15:51:01.977Z,16.2
2018-09-26T15:52:01.204Z,16.2
2018-09-26T15:55:58.091Z,16.1
2018-09-26T15:57:56.908Z,16.1
2018-09-26T15:58:56.237Z,16.1
2018-09-26T15:59:55.459Z,16.1
2018-09-26T16:00:54.819Z,16
2018-09-26T16:01:54.253Z,16
2018-09-26T16:04:51.637Z,16
2018-09-26T16:05:51.469Z,16
2018-09-26T16:06:22.436Z,16
2018-09-26T16:06:52.731Z,15.9
2018-09-26T16:07:22.885Z,15.9
2018-09-26T16:08:48.990Z,15.9
2018-09-26T16:09:48.352Z,15.9
2018-09-26T16:10:47.473Z,15.9
2018-09-26T16:13:45.496Z,15.9
2018-09-26T16:14:44.520Z,15.8
2018-09-26T16:15:44.363Z,15.8
2018-09-26T16:16:43.699Z,15.8
2018-09-26T16:17:14.145Z,15.8
2018-09-26T16:17:44.678Z,15.8
2018-09-26T16:18:14.950Z,15.8
2018-09-26T16:19:41.267Z,15.8
2018-09-26T16:20:40.712Z,15.8
2018-09-26T16:42:25.080Z,15.4
2018-09-26T16:43:23.752Z,15.4
2018-09-26T16:45:23.050Z,15.3
2018-09-26T16:46:22.272Z,15.3
2018-09-26T16:46:52.474Z,15.3
2018-09-26T16:49:19.883Z,15.3
2018-09-26T16:49:50.128Z,15.3
2018-09-26T16:50:21.124Z,15.3
2018-09-26T16:50:51.009Z,15.3
2018-09-26T16:52:17.796Z,15.3
2018-09-26T16:53:17.026Z,15.2
2018-09-26T16:54:15.961Z,15.2
2018-09-26T16:55:15.234Z,15.2
2018-09-26T16:56:14.783Z,15.2
2018-09-26T16:59:11.983Z,15.1
2018-09-26T16:59:42.518Z,15.1
2018-09-26T17:00:13.185Z,15.1
2018-09-26T17:00:43.404Z,15.1
2018-09-26T17:01:13.544Z,15.1
2018-09-26T17:01:44.180Z,15.1
2018-09-26T17:04:08.758Z,15
2018-09-26T17:05:07.903Z,15
2018-09-26T17:06:07.253Z,15
2018-09-26T17:07:06.631Z,15
2018-09-26T17:08:05.558Z,15
2018-09-26T17:09:05.051Z,15
2018-09-26T17:10:04.406Z,15
2018-09-26T17:11:03.541Z,15
2018-09-26T17:13:02.106Z,15
2018-09-26T17:14:01.448Z,15
2018-09-26T17:16:59.233Z,14.9
2018-09-26T17:17:58.572Z,14.8
2018-09-26T17:18:29.107Z,14.8
2018-09-26T17:18:59.757Z,14.8
2018-09-26T17:19:30.213Z,14.8
2018-09-26T17:20:56.493Z,14.7
2018-09-26T17:21:55.616Z,14.7
2018-09-26T17:23:54.229Z,14.6
2018-09-26T17:26:51.731Z,14.6
2018-09-26T17:27:51.063Z,14.5
2018-09-26T17:29:49.678Z,14.5
2018-09-26T17:30:20.453Z,14.5
2018-09-26T17:30:50.553Z,14.4
2018-09-26T17:31:20.804Z,14.4
2018-09-26T17:32:47.304Z,14.4
2018-09-26T17:33:46.756Z,14.4
2018-09-26T17:34:46.058Z,14.4
2018-09-26T17:35:44.926Z,14.3
2018-09-26T17:36:44.145Z,14.3
2018-09-26T17:37:43.756Z,14.3
2018-09-26T17:38:42.647Z,14.3
2018-09-26T17:39:41.873Z,14.3
2018-09-26T17:41:40.594Z,14.3
2018-09-26T17:42:11.397Z,14.3
2018-09-26T17:42:41.540Z,14.3
2018-09-26T17:43:39.263Z,14.2
2018-09-26T17:44:38.201Z,14.2
2018-09-26T17:45:38.036Z,14.3
2018-09-26T17:46:36.895Z,14.3
2018-09-26T17:48:35.217Z,14.3
2018-09-26T17:49:34.662Z,14.3
2018-09-26T17:50:34.102Z,14.3
2018-09-26T17:53:31.699Z,14.2
2018-09-26T17:54:30.750Z,14.2
2018-09-26T17:55:30.310Z,14.2
2018-09-26T17:56:29.028Z,14.2
2018-09-26T17:57:28.361Z,14.2
2018-09-26T17:58:27.709Z,14.2
2018-09-26T17:59:27.038Z,14.2
2018-09-26T18:00:26.440Z,14.2
2018-09-26T18:01:25.721Z,14.2
2018-09-26T18:01:56.205Z,14.2
2018-09-26T18:02:26.644Z,14.2
2018-09-26T18:03:23.766Z,14.2
2018-09-26T18:04:23.692Z,14.2
2018-09-26T18:05:22.715Z,14.2
2018-09-26T18:07:21.060Z,14.1
2018-09-26T18:08:20.281Z,14.1
2018-09-26T18:09:19.290Z,14.1
2018-09-26T18:10:18.515Z,14
2018-09-26T18:12:17.130Z,14
2018-09-26T18:13:16.564Z,14
2018-09-26T18:14:15.669Z,14
2018-09-26T18:15:14.791Z,14
2018-09-26T18:17:13.550Z,14.1
2018-09-26T18:18:12.428Z,14
2018-09-26T18:19:12.161Z,14
2018-09-26T18:20:11.050Z,14
2018-09-26T18:21:10.569Z,14
2018-09-26T18:22:09.747Z,14
2018-09-26T18:26:06.678Z,13.9
2018-09-26T18:27:05.916Z,13.9
2018-09-26T18:27:36.537Z,13.9
2018-09-26T18:28:06.728Z,13.9
2018-09-26T18:28:37.164Z,13.9
2018-09-26T18:32:01.837Z,13.9
2018-09-26T18:36:58.098Z,13.9
2018-09-26T18:37:28.654Z,13.9
2018-09-26T18:37:59.194Z,13.9
2018-09-26T18:38:29.415Z,13.9
2018-09-26T19:12:30.949Z,13.6
2018-09-26T19:22:22.970Z,13.5
2018-09-26T19:31:15.779Z,13.4
2018-09-26T19:32:15.108Z,13.4
2018-09-26T19:33:14.159Z,13.4
2018-09-26T19:36:12.217Z,13.3
2018-09-26T19:37:11.351Z,13.3
2018-09-26T19:42:07.336Z,13.3
2018-09-26T19:45:05.034Z,13.2
2018-09-26T19:47:03.286Z,13.2
2018-09-26T19:49:02.011Z,13.2
2018-09-26T19:49:32.436Z,13.2
2018-09-26T19:52:58.628Z,13.1
2018-09-26T19:53:57.850Z,13
2018-09-26T19:54:57.076Z,13
2018-09-26T19:58:54.175Z,13
2018-09-26T20:08:46.090Z,12.9
2018-09-26T20:09:45.309Z,12.9
2018-09-26T20:14:41.190Z,12.8
2018-09-26T20:15:40.515Z,12.8
2018-09-26T20:16:40.137Z,12.8
2018-09-26T20:18:38.330Z,12.8
2018-09-26T20:19:37.669Z,12.8
2018-09-26T20:20:37.004Z,12.8
2018-09-26T20:21:35.946Z,12.7
2018-09-26T20:22:35.347Z,12.7
2018-09-26T20:24:33.570Z,12.7
2018-09-26T20:25:32.904Z,12.7
2018-09-26T20:27:31.445Z,12.7
2018-09-26T20:28:30.300Z,12.7